Wetterdaten: aktuell Dienstag, 01.09.2026 10:55
Datum Zeit Temp. 2m rel. Feuchte Luftdruck Regen Wind Richtung Richtung Sonne ET UV-Index Solar Taupunkt Böen
01.09.2026 10:55 18,7 °C 80 % 1019,8 hPa 0,0 mm 3,1 km/h (1 Bft) W 264 ° 30 min 0,1 mm 0,0 UV-I 250 W/m² 15,2 °C 17,8 km/h (3 Bft)
01.09.2026 09:55 17,3 °C 83 % 1019,4 hPa 0,0 mm 3,4 km/h (1 Bft) W 264 ° 0 min 0,0 mm 0,0 UV-I 154 W/m² 14,4 °C 13,3 km/h (3 Bft)
01.09.2026 08:55 16,8 °C 86 % 1019,2 hPa 0,0 mm 0,0 km/h (0 Bft) W 264 ° 0 min 0,0 mm 0,0 UV-I 93 W/m² 14,4 °C 0,0 km/h (0 Bft)
01.09.2026 07:55 16,3 °C 86 % 1018,9 hPa 0,0 mm 0,0 km/h (0 Bft) W 264 ° 0 min 0,0 mm 0,0 UV-I 21 W/m² 14,0 °C 0,0 km/h (0 Bft)
01.09.2026 06:55 16,0 °C 87 % 1018,4 hPa 0,0 mm 0,0 km/h (0 Bft) W 264 ° 0 min 0,0 mm 0,0 UV-I 1 W/m² 13,8 °C 0,0 km/h (0 Bft)
01.09.2026 05:55 15,9 °C 87 % 1017,9 hPa 0,0 mm 0,0 km/h (0 Bft) W 264 ° 0 min 0,0 mm 0,0 UV-I 0 W/m² 13,7 °C 0,0 km/h (0 Bft)
01.09.2026 04:55 15,8 °C 87 % 1017,9 hPa 0,0 mm 1,8 km/h (1 Bft) W 264 ° 0 min 0,0 mm 0,0 UV-I 0 W/m² 13,6 °C 8,9 km/h (2 Bft)
01.09.2026 03:50 15,8 °C 87 % 1017,5 hPa 0,0 mm 3,1 km/h (1 Bft) W 264 ° 0 min 0,0 mm 0,0 UV-I 0 W/m² 13,6 °C 13,3 km/h (3 Bft)
01.09.2026 02:50 16,0 °C 86 % 1017,5 hPa 0,0 mm 0,7 km/h (0 Bft) W 264 ° 0 min 0,0 mm 0,0 UV-I 0 W/m² 13,7 °C 8,9 km/h (2 Bft)
01.09.2026 01:50 16,5 °C 86 % 1017,2 hPa 0,0 mm 2,5 km/h (1 Bft) W 264 ° 0 min 0,0 mm 0,0 UV-I 0 W/m² 14,1 °C 11,1 km/h (2 Bft)
01.09.2026 00:50 16,6 °C 85 % 1017,1 hPa 0,0 mm 0,9 km/h (0 Bft) W 264 ° 0 min 0,0 mm 0,0 UV-I 0 W/m² 14,1 °C 11,1 km/h (2 Bft)
31.08.2026 23:50 16,3 °C 86 % 1017,1 hPa 0,0 mm 0,5 km/h (0 Bft) W 264 ° 0 min 0,0 mm 0,0 UV-I 0 W/m² 14,0 °C 2,2 km/h (1 Bft)
31.08.2026 22:50 16,4 °C 85 % 1016,6 hPa 0,0 mm 0,0 km/h (0 Bft) W 264 ° 0 min 0,0 mm 0,0 UV-I 0 W/m² 13,9 °C 0,0 km/h (0 Bft)
31.08.2026 21:50 17,0 °C 84 % 1016,1 hPa 0,0 mm 0,0 km/h (0 Bft) W 264 ° 0 min 0,0 mm 0,0 UV-I 0 W/m² 14,3 °C 2,2 km/h (1 Bft)
31.08.2026 20:50 17,7 °C 81 % 1015,2 hPa 0,0 mm 0,0 km/h (0 Bft) W 264 ° 10 min 0,1 mm 0,0 UV-I 0 W/m² 14,4 °C 0,0 km/h (0 Bft)
31.08.2026 19:50 18,5 °C 77 % 1014,2 hPa 0,0 mm 6,7 km/h (2 Bft) W 264 ° 25 min 0,1 mm 0,0 UV-I 31 W/m² 14,4 °C 17,8 km/h (3 Bft)
31.08.2026 18:50 19,0 °C 77 % 1013,5 hPa 0,0 mm 8,3 km/h (2 Bft) W 264 ° 10 min 0,1 mm 0,0 UV-I 124 W/m² 14,9 °C 20,0 km/h (4 Bft)
31.08.2026 17:50 18,6 °C 79 % 1013,2 hPa 0,0 mm 10,0 km/h (2 Bft) W 264 ° 15 min 0,2 mm 0,0 UV-I 112 W/m² 14,9 °C 24,4 km/h (4 Bft)
31.08.2026 16:50 18,4 °C 84 % 1012,4 hPa 0,3 mm 5,0 km/h (1 Bft) W 264 ° 45 min 0,0 mm 0,0 UV-I 547 W/m² 15,6 °C 20,0 km/h (4 Bft)
31.08.2026 15:50 15,9 °C 87 % 1012,3 hPa 7,9 mm 3,8 km/h (1 Bft) W 264 ° 0 min 0,2 mm 0,0 UV-I 19 W/m² 13,7 °C 20,0 km/h (4 Bft)
31.08.2026 14:50 21,0 °C 68 % 1011,3 hPa 1,5 mm 4,9 km/h (1 Bft) W 264 ° 35 min 0,4 mm 0,0 UV-I 46 W/m² 14,9 °C 40,0 km/h (6 Bft)
31.08.2026 13:50 23,3 °C 51 % 1010,6 hPa 0,0 mm 4,1 km/h (1 Bft) N 359 ° 60 min 0,3 mm 0,6 UV-I 772 W/m² 12,6 °C 26,7 km/h (4 Bft)
31.08.2026 12:50 21,9 °C 59 % 1010,9 hPa 0,0 mm 2,1 km/h (1 Bft) W 264 ° 40 min 0,2 mm 0,0 UV-I 762 W/m² 13,5 °C 17,8 km/h (3 Bft)
31.08.2026 11:50 20,4 °C 64 % 1010,8 hPa 0,0 mm 1,1 km/h (1 Bft) W 264 ° 30 min 0,1 mm 0,0 UV-I 383 W/m² 13,4 °C 26,7 km/h (4 Bft)
31.08.2026 11:00 19,3 °C 70 % 1010,9 hPa 0,0 mm 0,9 km/h (0 Bft) W 264 ° 0 min 0,1 mm 0,0 UV-I 440 W/m² 13,7 °C 6,7 km/h (2 Bft)
_ Min-Zeit 15:55 13:55 14:25 - 11:25 - - - - - - 13:35 15:00
Minimum _ 15,8 °C 50 % 1010,5 hPa - 0,0 km/h (0 Bft) - - - - - - 12,2 °C 0,0 km/h (0 Bft)
_ Max-Zeit 13:55 16:15 10:40 15:30 15:35 - - 11:00 14:00 13:25 13:30 16:55 14:50
Maximum _ 23,5 °C 89 % 1019,8 hPa 3,0 mm 13,0 km/h
W (3 Bft)
- - 5 min 0,4 mm 0,7 UV-I 839 W/m² 15,7 °C 40,0 km/h
W (6 Bft)
Durchschnitt _ 17,9 °C 79 % 1015,1 hPa #9,7 mm 2,2 km/h (1 Bft) W - #30 min. #0,076 mm 0,0 UV-I 125 W/m² 14,1 °C 10,4 km/h (2 Bft)



© 1998 - 2026 www.pulheimwetter.de